Pont Aven — FNPN — position and weather

sailwx.info

Track history (hours):
 
Tides and Currents Weather Stations Pressure Air Temp Water Temp Dewpoint Dewpoint Depression Visibility Wind Speed Wind Dir Waves Ship Positions

Pont Aven

Last reported at 2019-Sep-17 08:30 UTC. Time now 2019-Sep-17 08:42 UTC.
Position N 48°46' W 004°46'.

Length 185 m; beam 31 m.

Type: Passenger vessel. MMSI: 228183600.

Date/timePositionNaut miles runAvg speedWind from/ knotsBaromVisibWave heightAir tempDewpointWater temp
2019-Sep-17 08:30N 48°46' W 004°46'1020.6
2019-Sep-17 08:00N 48°36' W 004°49'917.1
2019-Sep-17 07:30N 48°28' W 004°51'714.3
2019-Sep-17 07:01N 48°21' W 004°49'815.5
2019-Sep-17 06:30N 48°13' W 004°46'816.6
2019-Sep-17 06:00N 48°05' W 004°46'714.6
2019-Sep-17 05:31N 47°58' W 004°43'1020.7
2019-Sep-17 05:00N 47°47' W 004°41'1121.3
2019-Sep-17 04:30N 47°37' W 004°38'1021.0
2019-Sep-17 04:00N 47°27' W 004°36'1121.2
2019-Sep-17 03:31N 47°16' W 004°34'1121.5
2019-Sep-17 03:00N 47°06' W 004°31'1121.2
2019-Sep-17 02:30N 46°55' W 004°29'1121.4
2019-Sep-17 02:01N 46°44' W 004°27'1121.3
2019-Sep-17 01:30N 46°34' W 004°25'1121.3
2019-Sep-17 01:00N 46°23' W 004°23'1121.1
2019-Sep-17 00:30N 46°13' W 004°20'1020.8
2019-Sep-17 00:00N 46°03' W 004°18'1020.9
2019-Sep-16 23:30N 45°52' W 004°16'1020.8
2019-Sep-16 23:01N 45°42' W 004°14'1020.7
2019-Sep-16 22:31N 45°32' W 004°12'1020.7
2019-Sep-16 22:01N 45°22' W 004°10'1121.0
2019-Sep-16 21:30N 45°11' W 004°07'1121.3
2019-Sep-16 21:01N 45°01' W 004°04'1020.9
2019-Sep-16 20:31N 44°50' W 004°02'1020.8
2019-Sep-16 20:00N 44°40' W 003°60'1020.9
2019-Sep-16 19:30N 44°30' W 003°57'1020.8
2019-Sep-16 19:00N 44°20' W 003°55'1121.0
2019-Sep-16 18:30N 44°09' W 003°53'1121.3
2019-Sep-16 17:59N 43°58' W 003°50'1021.3
2019-Sep-16 17:31N 43°48' W 003°48'1121.0
2019-Sep-16 17:00N 43°38' W 003°46'1019.3
2019-Sep-16 16:29N 43°28' W 003°46'2 3.8
2019-Sep-16 16:01N 43°28' W 003°48'0 0.0
2019-Sep-16 15:30N 43°28' W 003°48'0 0.0
2019-Sep-16 15:01N 43°28' W 003°48'0 0.0
2019-Sep-16 14:30N 43°28' W 003°48'0 0.0
2019-Sep-16 14:01N 43°28' W 003°48'0 0.0
2019-Sep-16 13:31N 43°28' W 003°48'0 0.0
2019-Sep-16 13:00N 43°28' W 003°48'4 6.1
2019-Sep-16 12:20N 43°31' W 003°45'617.3
2019-Sep-16 12:01N 43°37' W 003°47'917.5
2019-Sep-16 11:30N 43°45' W 003°49'917.5
2019-Sep-16 11:01N 43°54' W 003°53'1018.2
2019-Sep-16 10:28N 44°03' W 003°55'3219.6
2019-Sep-16 08:49N 44°35' W 004°05'4621.3
2019-Sep-16 06:39N 45°20' W 004°18'321.4
2019-Sep-16 06:30N 45°23' W 004°19'1121.5
2019-Sep-16 06:01N 45°33' W 004°23'1421.5
2019-Sep-16 05:21N 45°47' W 004°27'821.4
2019-Sep-16 05:00N 45°55' W 004°28'1021.3
2019-Sep-16 04:30N 46°05' W 004°31'1120.8
2019-Sep-16 03:59N 46°15' W 004°36'1721.4
2019-Sep-16 03:10N 46°33' W 004°41'522.0
2019-Sep-16 02:57N 46°37' W 004°42'921.7
2019-Sep-16 02:30N 46°47' W 004°45'1121.3
2019-Sep-16 02:00N 46°57' W 004°49'1121.1
2019-Sep-16 01:30N 47°07' W 004°53'1121.1
2019-Sep-16 00:59N 47°18' W 004°58'1021.0
2019-Sep-16 00:30N 47°28' W 005°01'1021.0
2019-Sep-16 00:00N 47°38' W 005°03'1121.4
2019-Sep-15 23:31N 47°48' W 005°07'1122.0
2019-Sep-15 23:00N 47°59' W 005°10'1122.1
2019-Sep-15 22:30N 48°10' W 005°09'1122.4
2019-Sep-15 22:01N 48°21' W 005°07'917.7
2019-Sep-15 21:30N 48°29' W 004°59'1122.9
2019-Sep-15 21:01N 48°40' W 004°55'1122.7
2019-Sep-15 20:30N 48°51' W 004°50'1122.0
2019-Sep-15 20:00N 49°01' W 004°46'1121.4
2019-Sep-15 19:30N 49°11' W 004°41'1020.9
2019-Sep-15 19:00N 49°21' W 004°36'1020.6
2019-Sep-15 18:30N 49°31' W 004°32'1020.6
2019-Sep-15 18:00N 49°41' W 004°27'1020.7
2019-Sep-15 17:30N 49°51' W 004°23'1121.0
2019-Sep-15 17:00N 50°01' W 004°18'1121.2
2019-Sep-15 16:30N 50°11' W 004°13'918.9
2019-Sep-15 16:00N 50°20' W 004°09'1 2.8
2019-Sep-15 15:31N 50°22' W 004°09'0 0.0
2019-Sep-15 15:00N 50°22' W 004°09'0 0.0
2019-Sep-15 14:30N 50°22' W 004°09'0 0.0
2019-Sep-15 14:01N 50°22' W 004°09'0 0.0
2019-Sep-15 13:30N 50°22' W 004°09'0 0.0
2019-Sep-15 13:01N 50°22' W 004°09'2 4.4
2019-Sep-15 12:31N 50°20' W 004°10'1019.5
2019-Sep-15 12:00N 50°10' W 004°08'1020.6
2019-Sep-15 11:30N 49°60' W 004°06'1021.0
2019-Sep-15 11:01N 49°49' W 004°04'1121.0
2019-Sep-15 10:30N 49°39' W 004°01'1020.9
2019-Sep-15 10:00N 49°29' W 004°00'1120.6
2019-Sep-15 09:29N 49°18' W 004°01'1021.0
2019-Sep-15 09:00N 49°08' W 003°60'1021.0
2019-Sep-15 08:30N 48°57' W 003°58'1121.0
2019-Sep-15 08:00N 48°47' W 003°57'3 6.9
2019-Sep-15 07:30N 48°43' W 003°58'0 0.0
2019-Sep-15 06:55N 48°43' W 003°58'0 0.0
2019-Sep-15 04:43N 48°43' W 003°58'1 6.0
2019-Sep-15 04:30N 48°44' W 003°57'714.9
2019-Sep-15 04:00N 48°51' W 004°03'917.5
2019-Sep-15 03:31N 48°56' W 004°13'917.6
2019-Sep-15 03:00N 49°02' W 004°23'917.2
2019-Sep-15 02:30N 49°08' W 004°34'917.1
2019-Sep-15 02:00N 49°13' W 004°44'816.2
2019-Sep-15 01:30N 49°18' W 004°53'816.0
2019-Sep-15 01:00N 49°24' W 005°02'915.9
2019-Sep-15 00:28N 49°30' W 005°11'817.4
2019-Sep-15 00:00N 49°36' W 005°20'1020.5
2019-Sep-14 23:30N 49°42' W 005°32'1020.6
2019-Sep-14 23:00N 49°48' W 005°45'1121.1
2019-Sep-14 22:28N 49°55' W 005°58'2021.9
2019-Sep-14 21:33N 50°16' W 006°02'422.0
2019-Sep-14 21:21N 50°20' W 006°03'821.5
2019-Sep-14 21:00N 50°25' W 006°11'1321.5
2019-Sep-14 20:23N 50°35' W 006°26'1221.5
2019-Sep-14 19:50N 50°43' W 006°39'821.4
2019-Sep-14 19:28N 50°49' W 006°47'1021.5
2019-Sep-14 19:01N 50°56' W 006°59'1421.5
2019-Sep-14 18:22N 51°06' W 007°14'1221.4
2019-Sep-14 17:48N 51°15' W 007°27'1821.6
2019-Sep-14 16:57N 51°27' W 007°48'1021.5
2019-Sep-14 16:30N 51°34' W 007°59'1121.4
2019-Sep-14 16:01N 51°42' W 008°10'815.5
2019-Sep-14 15:30N 51°49' W 008°16'2 4.5
2019-Sep-14 15:01N 51°50' W 008°20'0 0.2
2019-Sep-14 14:30N 51°50' W 008°19'0 0.0
2019-Sep-14 13:59N 51°50' W 008°19'0 0.0
2019-Sep-14 13:29N 51°50' W 008°19'0 0.0
2019-Sep-14 12:59N 51°50' W 008°19'0 0.0
2019-Sep-14 12:29N 51°50' W 008°19'0 0.0
2019-Sep-14 11:56N 51°50' W 008°19'0 0.0
2019-Sep-14 11:29N 51°50' W 008°19'0 0.0
2019-Sep-14 10:59N 51°50' W 008°19'0 0.0
2019-Sep-14 10:29N 51°50' W 008°19'0 0.0
2019-Sep-14 09:59N 51°50' W 008°19'0 0.0
2019-Sep-14 09:29N 51°50' W 008°19'0 0.0
2019-Sep-14 08:59N 51°50' W 008°19'0 0.6
2019-Sep-14 08:31N 51°50' W 008°20'2 4.5
2019-Sep-14 08:01N 51°50' W 008°16'4 7.4
2019-Sep-14 07:30N 51°46' W 008°15'5 9.3
2019-Sep-14 07:01N 51°42' W 008°11'917.0
2019-Sep-14 06:30N 51°36' W 008°01'816.9
2019-Sep-14 06:01N 51°31' W 007°51'816.8
2019-Sep-14 05:31N 51°25' W 007°41'1016.8
2019-Sep-14 04:56N 51°18' W 007°30'716.8
2019-Sep-14 04:30N 51°13' W 007°21'816.9
2019-Sep-14 04:00N 51°07' W 007°12'817.1
2019-Sep-14 03:30N 51°01' W 007°02'917.6
2019-Sep-14 03:00N 50°55' W 006°52'1121.1
2019-Sep-14 02:30N 50°48' W 006°40'1121.2
2019-Sep-14 02:00N 50°40' W 006°29'1221.3
2019-Sep-14 01:28N 50°32' W 006°16'1321.3
2019-Sep-14 00:51N 50°23' W 006°01'719.8
2019-Sep-14 00:29N 50°17' W 005°55'2220.3
2019-Sep-13 23:25N 49°56' W 005°45'5421.3
2019-Sep-13 20:52N 49°18' W 004°46'1820.7
2019-Sep-13 20:01N 49°05' W 004°28'020.4
2019-Sep-13 20:00N 49°05' W 004°27'1320.9
2019-Sep-13 19:23N 48°56' W 004°12'820.8
2019-Sep-13 18:59N 48°50' W 004°03'816.5
2019-Sep-13 18:30N 48°43' W 003°57'1 0.3
2019-Sep-13 14:31N 48°45' W 003°57'713.6
2019-Sep-13 13:58N 48°50' W 003°48'4 6.7
2019-Sep-13 13:20N 48°53' W 003°53'410.9
2019-Sep-13 13:00N 48°54' W 003°58'510.5
2019-Sep-13 12:30N 48°55' W 004°06'13 4.7
2019-Sep-13 09:44N 48°43' W 003°57'0 0.0
2019-Sep-13 05:44N 48°43' W 003°57'210.8
2019-Sep-13 05:30N 48°46' W 003°57'1020.6
2019-Sep-13 05:00N 48°55' W 004°03'713.9
2019-Sep-13 04:28N 49°02' W 004°07'712.3
2019-Sep-13 03:55N 49°08' W 004°12'711.8
2019-Sep-13 03:22N 49°14' W 004°16'412.1
2019-Sep-13 03:00N 49°18' W 004°19'712.0
2019-Sep-13 02:24N 49°25' W 004°24'1211.9
2019-Sep-13 01:24N 49°35' W 004°32'511.9
2019-Sep-13 01:00N 49°39' W 004°36'611.8
2019-Sep-13 00:30N 49°44' W 004°42'1111.9
2019-Sep-12 23:36N 49°53' W 004°52'212.0
2019-Sep-12 23:24N 49°55' W 004°52'2312.1
2019-Sep-12 21:29N 50°16' W 004°36'711.6
2019-Sep-12 20:55N 50°17' W 004°26'511.6
2019-Sep-12 20:28N 50°17' W 004°18'510.0
2019-Sep-12 19:58N 50°19' W 004°11'2 5.5
2019-Sep-12 19:30N 50°22' W 004°09'0 0.0
2019-Sep-12 19:00N 50°22' W 004°09'0 0.0
2019-Sep-12 18:30N 50°22' W 004°09'0 0.0
2019-Sep-12 18:00N 50°22' W 004°09'0 0.0
2019-Sep-12 17:30N 50°22' W 004°09'0 0.0
2019-Sep-12 17:00N 50°22' W 004°09'0 0.0
2019-Sep-12 16:30N 50°22' W 004°09'0 0.0
2019-Sep-12 16:00N 50°22' W 004°09'2 3.1
2019-Sep-12 15:30N 50°20' W 004°10'918.5
2019-Sep-12 15:01N 50°11' W 004°13'1020.4
2019-Sep-12 14:30N 50°01' W 004°17'1820.7
2019-Sep-12 13:38N 49°44' W 004°23'720.8
2019-Sep-12 13:19N 49°38' W 004°26'1220.8
2019-Sep-12 12:43N 49°26' W 004°31'520.7
2019-Sep-12 12:30N 49°21' W 004°33'1021.0
2019-Sep-12 12:00N 49°11' W 004°37'1221.1
2019-Sep-12 11:27N 49°00' W 004°44'920.7
2019-Sep-12 11:00N 48°52' W 004°49'1020.4
2019-Sep-12 10:31N 48°42' W 004°54'1020.2
2019-Sep-12 10:01N 48°32' W 004°58'815.7
2019-Sep-12 09:31N 48°25' W 005°03'1019.0
2019-Sep-12 09:01N 48°16' W 005°07'1020.2
2019-Sep-12 08:31N 48°06' W 005°10'1019.5
2019-Sep-12 08:01N 47°57' W 005°08'1019.7
2019-Sep-12 07:30N 47°47' W 005°05'1020.3
2019-Sep-12 07:00N 47°37' W 005°02'1120.5
2019-Sep-12 06:26N 47°26' W 004°58'920.3
2019-Sep-12 06:00N 47°17' W 004°55'1020.4
2019-Sep-12 05:30N 47°07' W 004°52'1120.4
2019-Sep-12 04:59N 46°57' W 004°49'1020.3
2019-Sep-12 04:30N 46°47' W 004°45'1020.5
2019-Sep-12 04:00N 46°37' W 004°42'1020.9
2019-Sep-12 03:30N 46°27' W 004°39'1620.9
2019-Sep-12 02:45N 46°12' W 004°34'921.3
2019-Sep-12 02:19N 46°03' W 004°31'721.2
2019-Sep-12 02:00N 45°56' W 004°29'4221.2
2019-Sep-12 00:02N 45°15' W 004°17'121.1
2019-Sep-11 23:58N 45°14' W 004°17'9020.7
2019-Sep-11 19:39N 43°46' W 003°50'320.7
2019-Sep-11 19:30N 43°44' W 003°49'1020.4
2019-Sep-11 19:00N 43°34' W 003°46'712.0
2019-Sep-11 18:28N 43°27' W 003°48'0 0.3
2019-Sep-11 18:00N 43°28' W 003°48'0 0.0
2019-Sep-11 17:30N 43°28' W 003°48'0 0.0
2019-Sep-11 17:00N 43°28' W 003°48'0 0.0
2019-Sep-11 16:31N 43°28' W 003°48'0 0.0
2019-Sep-11 16:00N 43°28' W 003°48'0 0.0
2019-Sep-11 15:31N 43°28' W 003°48'4 6.1
2019-Sep-11 14:50N 43°31' W 003°45'619.6
2019-Sep-11 14:30N 43°37' W 003°47'1019.9
2019-Sep-11 14:01N 43°47' W 003°50'20120.7
2019-Sep-11 04:17N 47°04' W 004°51'621.6
2019-Sep-11 04:00N 47°10' W 004°53'3221.6
2019-Sep-11 02:31N 47°41' W 005°03'021.2
2019-Sep-11 02:30N 47°41' W 005°03'1021.0
2019-Sep-11 02:00N 47°52' W 005°06'1020.1
2019-Sep-11 01:31N 48°01' W 005°09'1019.6
2019-Sep-11 01:01N 48°11' W 005°08'1020.0
2019-Sep-11 00:30N 48°21' W 005°06'815.8
2019-Sep-11 00:01N 48°28' W 004°60'1019.8
2019-Sep-10 23:31N 48°37' W 004°55'1020.7
2019-Sep-10 23:01N 48°47' W 004°50'1120.9
2019-Sep-10 22:28N 48°58' W 004°46'1421.3
2019-Sep-10 21:48N 49°12' W 004°41'1821.6
2019-Sep-10 20:58N 49°29' W 004°33'4521.5
2019-Sep-10 18:54N 50°12' W 004°13'820.4
2019-Sep-10 18:30N 50°19' W 004°10'2 4.9
2019-Sep-10 18:00N 50°22' W 004°09'0 0.0
2019-Sep-10 17:30N 50°22' W 004°09'0 0.0
2019-Sep-10 17:00N 50°22' W 004°09'0 0.0
2019-Sep-10 16:30N 50°22' W 004°09'0 0.0
2019-Sep-10 16:00N 50°22' W 004°09'0 0.0
2019-Sep-10 15:30N 50°22' W 004°09'0 0.4
2019-Sep-10 15:00N 50°22' W 004°09'5 9.5
2019-Sep-10 14:30N 50°17' W 004°11'1120.4
2019-Sep-10 13:58N 50°07' W 004°15'7818.3
2019-Sep-10 09:41N 48°51' W 004°49'419.7
2019-Sep-10 09:30N 48°48' W 004°51'1019.6
2019-Sep-10 09:01N 48°39' W 004°55'1019.6
2019-Sep-10 08:30N 48°29' W 004°58'815.6
2019-Sep-10 08:01N 48°23' W 005°06'919.0
2019-Sep-10 07:31N 48°14' W 005°08'1019.2
2019-Sep-10 07:01N 48°04' W 005°10'918.4
2019-Sep-10 06:31N 47°55' W 005°07'918.9
2019-Sep-10 06:00N 47°46' W 005°05'1418.5
2019-Sep-10 05:14N 47°32' W 005°00'23419.3
2019-Sep-09 17:06N 43°44' W 003°49'421.4
2019-Sep-09 16:54N 43°40' W 003°48'921.2
2019-Sep-09 16:30N 43°31' W 003°45'4 7.4
2019-Sep-09 15:55N 43°28' W 003°48'0 0.0
2019-Sep-09 15:25N 43°28' W 003°48'0 0.0
2019-Sep-09 14:56N 43°28' W 003°48'0 0.0
2019-Sep-09 14:28N 43°28' W 003°48'0 0.0
2019-Sep-09 14:00N 43°28' W 003°48'0 0.0
2019-Sep-09 13:30N 43°28' W 003°48'4 3.8
2019-Sep-09 12:22N 43°31' W 003°45'821.2
2019-Sep-09 12:00N 43°39' W 003°48'25121.6
2019-Sep-09 00:20N 47°44' W 005°06'721.1
2019-Sep-09 00:00N 47°51' W 005°06'1020.9
2019-Sep-08 23:30N 48°01' W 005°09'1020.3
2019-Sep-08 23:00N 48°11' W 005°09'1020.6
2019-Sep-08 22:30N 48°21' W 005°07'816.5
2019-Sep-08 22:01N 48°28' W 004°59'1020.5
2019-Sep-08 21:30N 48°38' W 004°55'1121.4
2019-Sep-08 21:00N 48°48' W 004°51'9521.5
2019-Sep-08 16:36N 50°19' W 004°10'113.8
2019-Sep-08 16:30N 50°20' W 004°10'1 2.9
2019-Sep-08 16:00N 50°22' W 004°09'0 0.0
2019-Sep-08 15:30N 50°22' W 004°09'0 0.0
2019-Sep-08 15:00N 50°22' W 004°09'0 0.0
2019-Sep-08 14:30N 50°22' W 004°09'0 0.0
2019-Sep-08 14:00N 50°22' W 004°09'0 0.0
2019-Sep-08 13:30N 50°22' W 004°09'0 0.0
2019-Sep-08 13:00N 50°22' W 004°09'2 4.3
2019-Sep-08 12:30N 50°20' W 004°10'1121.2
2019-Sep-08 12:00N 50°09' W 004°09'1121.6
2019-Sep-08 11:30N 49°58' W 004°07'7221.5
2019-Sep-08 08:10N 48°47' W 003°57'4 1.1
2019-Sep-08 04:43N 48°43' W 003°58'2 8.8
2019-Sep-08 04:30N 48°45' W 003°57'918.9
2019-Sep-08 04:01N 48°52' W 004°06'1121.2
2019-Sep-08 03:30N 48°59' W 004°18'20619.3
2019-Sep-07 16:48N 51°32' W 007°55'621.5
2019-Sep-07 16:31N 51°37' W 008°02'1121.0
2019-Sep-07 16:01N 51°44' W 008°14'612.7
2019-Sep-07 15:31N 51°50' W 008°16'2 4.7
2019-Sep-07 15:00N 51°50' W 008°19'0 0.0
2019-Sep-07 14:30N 51°50' W 008°19'0 0.0
2019-Sep-07 14:00N 51°50' W 008°19'0 0.0
2019-Sep-07 13:30N 51°50' W 008°19'0 0.0
2019-Sep-07 13:00N 51°50' W 008°19'0 0.0
2019-Sep-07 12:30N 51°50' W 008°19'0 0.0
2019-Sep-07 12:00N 51°50' W 008°19'0 0.0
2019-Sep-07 11:30N 51°50' W 008°19'0 0.0
2019-Sep-07 11:00N 51°50' W 008°19'0 0.0
2019-Sep-07 10:30N 51°50' W 008°19'0 0.0
2019-Sep-07 10:00N 51°50' W 008°19'0 0.0
2019-Sep-07 09:30N 51°50' W 008°19'0 0.0
2019-Sep-07 09:00N 51°50' W 008°19'0 0.0
2019-Sep-07 08:30N 51°50' W 008°19'  
Track history (hours):
 
Tides and Currents Weather Stations Pressure Air Temp Water Temp Dewpoint Dewpoint Depression Visibility Wind Speed Wind Dir Waves Ship Positions

Pont Aven

Last reported at 2019-Sep-17 08:30 UTC. Time now 2019-Sep-17 08:42 UTC.
Position N 48°46' W 004°46'.

Length 185 m; beam 31 m.

Type: Passenger vessel. MMSI: 228183600.

Date/timePositionNaut miles runAvg speedWind from/ knotsBaromVisibWave heightAir tempDewpointWater temp
2019-Sep-17 08:30N 48°46' W 004°46'1020.6
2019-Sep-17 08:00N 48°36' W 004°49'917.1
2019-Sep-17 07:30N 48°28' W 004°51'714.3
2019-Sep-17 07:01N 48°21' W 004°49'815.5
2019-Sep-17 06:30N 48°13' W 004°46'816.6
2019-Sep-17 06:00N 48°05' W 004°46'714.6
2019-Sep-17 05:31N 47°58' W 004°43'1020.7
2019-Sep-17 05:00N 47°47' W 004°41'1121.3
2019-Sep-17 04:30N 47°37' W 004°38'1021.0
2019-Sep-17 04:00N 47°27' W 004°36'1121.2
2019-Sep-17 03:31N 47°16' W 004°34'1121.5
2019-Sep-17 03:00N 47°06' W 004°31'1121.2
2019-Sep-17 02:30N 46°55' W 004°29'1121.4
2019-Sep-17 02:01N 46°44' W 004°27'1121.3
2019-Sep-17 01:30N 46°34' W 004°25'1121.3
2019-Sep-17 01:00N 46°23' W 004°23'1121.1
2019-Sep-17 00:30N 46°13' W 004°20'1020.8
2019-Sep-17 00:00N 46°03' W 004°18'1020.9
2019-Sep-16 23:30N 45°52' W 004°16'1020.8
2019-Sep-16 23:01N 45°42' W 004°14'1020.7
2019-Sep-16 22:31N 45°32' W 004°12'1020.7
2019-Sep-16 22:01N 45°22' W 004°10'1121.0
2019-Sep-16 21:30N 45°11' W 004°07'1121.3
2019-Sep-16 21:01N 45°01' W 004°04'1020.9
2019-Sep-16 20:31N 44°50' W 004°02'1020.8
2019-Sep-16 20:00N 44°40' W 003°60'1020.9
2019-Sep-16 19:30N 44°30' W 003°57'1020.8
2019-Sep-16 19:00N 44°20' W 003°55'1121.0
2019-Sep-16 18:30N 44°09' W 003°53'1121.3
2019-Sep-16 17:59N 43°58' W 003°50'1021.3
2019-Sep-16 17:31N 43°48' W 003°48'1121.0
2019-Sep-16 17:00N 43°38' W 003°46'1019.3
2019-Sep-16 16:29N 43°28' W 003°46'2 3.8
2019-Sep-16 16:01N 43°28' W 003°48'0 0.0
2019-Sep-16 15:30N 43°28' W 003°48'0 0.0
2019-Sep-16 15:01N 43°28' W 003°48'0 0.0
2019-Sep-16 14:30N 43°28' W 003°48'0 0.0
2019-Sep-16 14:01N 43°28' W 003°48'0 0.0
2019-Sep-16 13:31N 43°28' W 003°48'0 0.0
2019-Sep-16 13:00N 43°28' W 003°48'4 6.1
2019-Sep-16 12:20N 43°31' W 003°45'617.3
2019-Sep-16 12:01N 43°37' W 003°47'917.5
2019-Sep-16 11:30N 43°45' W 003°49'917.5
2019-Sep-16 11:01N 43°54' W 003°53'1018.2
2019-Sep-16 10:28N 44°03' W 003°55'3219.6
2019-Sep-16 08:49N 44°35' W 004°05'4621.3
2019-Sep-16 06:39N 45°20' W 004°18'321.4
2019-Sep-16 06:30N 45°23' W 004°19'1121.5
2019-Sep-16 06:01N 45°33' W 004°23'1421.5
2019-Sep-16 05:21N 45°47' W 004°27'821.4
2019-Sep-16 05:00N 45°55' W 004°28'1021.3
2019-Sep-16 04:30N 46°05' W 004°31'1120.8
2019-Sep-16 03:59N 46°15' W 004°36'1721.4
2019-Sep-16 03:10N 46°33' W 004°41'522.0
2019-Sep-16 02:57N 46°37' W 004°42'921.7
2019-Sep-16 02:30N 46°47' W 004°45'1121.3
2019-Sep-16 02:00N 46°57' W 004°49'1121.1
2019-Sep-16 01:30N 47°07' W 004°53'1121.1
2019-Sep-16 00:59N 47°18' W 004°58'1021.0
2019-Sep-16 00:30N 47°28' W 005°01'1021.0
2019-Sep-16 00:00N 47°38' W 005°03'1121.4
2019-Sep-15 23:31N 47°48' W 005°07'1122.0
2019-Sep-15 23:00N 47°59' W 005°10'1122.1
2019-Sep-15 22:30N 48°10' W 005°09'1122.4
2019-Sep-15 22:01N 48°21' W 005°07'917.7
2019-Sep-15 21:30N 48°29' W 004°59'1122.9
2019-Sep-15 21:01N 48°40' W 004°55'1122.7
2019-Sep-15 20:30N 48°51' W 004°50'1122.0
2019-Sep-15 20:00N 49°01' W 004°46'1121.4
2019-Sep-15 19:30N 49°11' W 004°41'1020.9
2019-Sep-15 19:00N 49°21' W 004°36'1020.6
2019-Sep-15 18:30N 49°31' W 004°32'1020.6
2019-Sep-15 18:00N 49°41' W 004°27'1020.7
2019-Sep-15 17:30N 49°51' W 004°23'1121.0
2019-Sep-15 17:00N 50°01' W 004°18'1121.2
2019-Sep-15 16:30N 50°11' W 004°13'918.9
2019-Sep-15 16:00N 50°20' W 004°09'1 2.8
2019-Sep-15 15:31N 50°22' W 004°09'0 0.0
2019-Sep-15 15:00N 50°22' W 004°09'0 0.0
2019-Sep-15 14:30N 50°22' W 004°09'0 0.0
2019-Sep-15 14:01N 50°22' W 004°09'0 0.0
2019-Sep-15 13:30N 50°22' W 004°09'0 0.0
2019-Sep-15 13:01N 50°22' W 004°09'2 4.4
2019-Sep-15 12:31N 50°20' W 004°10'1019.5
2019-Sep-15 12:00N 50°10' W 004°08'1020.6
2019-Sep-15 11:30N 49°60' W 004°06'1021.0
2019-Sep-15 11:01N 49°49' W 004°04'1121.0
2019-Sep-15 10:30N 49°39' W 004°01'1020.9
2019-Sep-15 10:00N 49°29' W 004°00'1120.6
2019-Sep-15 09:29N 49°18' W 004°01'1021.0
2019-Sep-15 09:00N 49°08' W 003°60'1021.0
2019-Sep-15 08:30N 48°57' W 003°58'1121.0
2019-Sep-15 08:00N 48°47' W 003°57'3 6.9
2019-Sep-15 07:30N 48°43' W 003°58'0 0.0
2019-Sep-15 06:55N 48°43' W 003°58'0 0.0
2019-Sep-15 04:43N 48°43' W 003°58'1 6.0
2019-Sep-15 04:30N 48°44' W 003°57'714.9
2019-Sep-15 04:00N 48°51' W 004°03'917.5
2019-Sep-15 03:31N 48°56' W 004°13'917.6
2019-Sep-15 03:00N 49°02' W 004°23'917.2
2019-Sep-15 02:30N 49°08' W 004°34'917.1
2019-Sep-15 02:00N 49°13' W 004°44'816.2
2019-Sep-15 01:30N 49°18' W 004°53'816.0
2019-Sep-15 01:00N 49°24' W 005°02'915.9
2019-Sep-15 00:28N 49°30' W 005°11'817.4
2019-Sep-15 00:00N 49°36' W 005°20'1020.5
2019-Sep-14 23:30N 49°42' W 005°32'1020.6
2019-Sep-14 23:00N 49°48' W 005°45'1121.1
2019-Sep-14 22:28N 49°55' W 005°58'2021.9
2019-Sep-14 21:33N 50°16' W 006°02'422.0
2019-Sep-14 21:21N 50°20' W 006°03'821.5
2019-Sep-14 21:00N 50°25' W 006°11'1321.5
2019-Sep-14 20:23N 50°35' W 006°26'1221.5
2019-Sep-14 19:50N 50°43' W 006°39'821.4
2019-Sep-14 19:28N 50°49' W 006°47'1021.5
2019-Sep-14 19:01N 50°56' W 006°59'1421.5
2019-Sep-14 18:22N 51°06' W 007°14'1221.4
2019-Sep-14 17:48N 51°15' W 007°27'1821.6
2019-Sep-14 16:57N 51°27' W 007°48'1021.5
2019-Sep-14 16:30N 51°34' W 007°59'1121.4
2019-Sep-14 16:01N 51°42' W 008°10'815.5
2019-Sep-14 15:30N 51°49' W 008°16'2 4.5
2019-Sep-14 15:01N 51°50' W 008°20'0 0.2
2019-Sep-14 14:30N 51°50' W 008°19'0 0.0
2019-Sep-14 13:59N 51°50' W 008°19'0 0.0
2019-Sep-14 13:29N 51°50' W 008°19'0 0.0
2019-Sep-14 12:59N 51°50' W 008°19'0 0.0
2019-Sep-14 12:29N 51°50' W 008°19'0 0.0
2019-Sep-14 11:56N 51°50' W 008°19'0 0.0
2019-Sep-14 11:29N 51°50' W 008°19'0 0.0
2019-Sep-14 10:59N 51°50' W 008°19'0 0.0
2019-Sep-14 10:29N 51°50' W 008°19'0 0.0
2019-Sep-14 09:59N 51°50' W 008°19'0 0.0
2019-Sep-14 09:29N 51°50' W 008°19'0 0.0
2019-Sep-14 08:59N 51°50' W 008°19'0 0.6
2019-Sep-14 08:31N 51°50' W 008°20'2 4.5
2019-Sep-14 08:01N 51°50' W 008°16'4 7.4
2019-Sep-14 07:30N 51°46' W 008°15'5 9.3
2019-Sep-14 07:01N 51°42' W 008°11'917.0
2019-Sep-14 06:30N 51°36' W 008°01'816.9
2019-Sep-14 06:01N 51°31' W 007°51'816.8
2019-Sep-14 05:31N 51°25' W 007°41'1016.8
2019-Sep-14 04:56N 51°18' W 007°30'716.8
2019-Sep-14 04:30N 51°13' W 007°21'816.9
2019-Sep-14 04:00N 51°07' W 007°12'817.1
2019-Sep-14 03:30N 51°01' W 007°02'917.6
2019-Sep-14 03:00N 50°55' W 006°52'1121.1
2019-Sep-14 02:30N 50°48' W 006°40'1121.2
2019-Sep-14 02:00N 50°40' W 006°29'1221.3
2019-Sep-14 01:28N 50°32' W 006°16'1321.3
2019-Sep-14 00:51N 50°23' W 006°01'719.8
2019-Sep-14 00:29N 50°17' W 005°55'2220.3
2019-Sep-13 23:25N 49°56' W 005°45'5421.3
2019-Sep-13 20:52N 49°18' W 004°46'1820.7
2019-Sep-13 20:01N 49°05' W 004°28'020.4
2019-Sep-13 20:00N 49°05' W 004°27'1320.9
2019-Sep-13 19:23N 48°56' W 004°12'820.8
2019-Sep-13 18:59N 48°50' W 004°03'816.5
2019-Sep-13 18:30N 48°43' W 003°57'1 0.3
2019-Sep-13 14:31N 48°45' W 003°57'713.6
2019-Sep-13 13:58N 48°50' W 003°48'4 6.7
2019-Sep-13 13:20N 48°53' W 003°53'410.9
2019-Sep-13 13:00N 48°54' W 003°58'510.5
2019-Sep-13 12:30N 48°55' W 004°06'13 4.7
2019-Sep-13 09:44N 48°43' W 003°57'0 0.0
2019-Sep-13 05:44N 48°43' W 003°57'210.8
2019-Sep-13 05:30N 48°46' W 003°57'1020.6
2019-Sep-13 05:00N 48°55' W 004°03'713.9
2019-Sep-13 04:28N 49°02' W 004°07'712.3
2019-Sep-13 03:55N 49°08' W 004°12'711.8
2019-Sep-13 03:22N 49°14' W 004°16'412.1
2019-Sep-13 03:00N 49°18' W 004°19'712.0
2019-Sep-13 02:24N 49°25' W 004°24'1211.9
2019-Sep-13 01:24N 49°35' W 004°32'511.9
2019-Sep-13 01:00N 49°39' W 004°36'611.8
2019-Sep-13 00:30N 49°44' W 004°42'1111.9
2019-Sep-12 23:36N 49°53' W 004°52'212.0
2019-Sep-12 23:24N 49°55' W 004°52'2312.1
2019-Sep-12 21:29N 50°16' W 004°36'711.6
2019-Sep-12 20:55N 50°17' W 004°26'511.6
2019-Sep-12 20:28N 50°17' W 004°18'510.0
2019-Sep-12 19:58N 50°19' W 004°11'2 5.5
2019-Sep-12 19:30N 50°22' W 004°09'0 0.0
2019-Sep-12 19:00N 50°22' W 004°09'0 0.0
2019-Sep-12 18:30N 50°22' W 004°09'0 0.0
2019-Sep-12 18:00N 50°22' W 004°09'0 0.0
2019-Sep-12 17:30N 50°22' W 004°09'0 0.0
2019-Sep-12 17:00N 50°22' W 004°09'0 0.0
2019-Sep-12 16:30N 50°22' W 004°09'0 0.0
2019-Sep-12 16:00N 50°22' W 004°09'2 3.1
2019-Sep-12 15:30N 50°20' W 004°10'918.5
2019-Sep-12 15:01N 50°11' W 004°13'1020.4
2019-Sep-12 14:30N 50°01' W 004°17'1820.7
2019-Sep-12 13:38N 49°44' W 004°23'720.8
2019-Sep-12 13:19N 49°38' W 004°26'1220.8
2019-Sep-12 12:43N 49°26' W 004°31'520.7
2019-Sep-12 12:30N 49°21' W 004°33'1021.0
2019-Sep-12 12:00N 49°11' W 004°37'1221.1
2019-Sep-12 11:27N 49°00' W 004°44'920.7
2019-Sep-12 11:00N 48°52' W 004°49'1020.4
2019-Sep-12 10:31N 48°42' W 004°54'1020.2
2019-Sep-12 10:01N 48°32' W 004°58'815.7
2019-Sep-12 09:31N 48°25' W 005°03'1019.0
2019-Sep-12 09:01N 48°16' W 005°07'1020.2
2019-Sep-12 08:31N 48°06' W 005°10'1019.5
2019-Sep-12 08:01N 47°57' W 005°08'1019.7
2019-Sep-12 07:30N 47°47' W 005°05'1020.3
2019-Sep-12 07:00N 47°37' W 005°02'1120.5
2019-Sep-12 06:26N 47°26' W 004°58'920.3
2019-Sep-12 06:00N 47°17' W 004°55'1020.4
2019-Sep-12 05:30N 47°07' W 004°52'1120.4
2019-Sep-12 04:59N 46°57' W 004°49'1020.3
2019-Sep-12 04:30N 46°47' W 004°45'1020.5
2019-Sep-12 04:00N 46°37' W 004°42'1020.9
2019-Sep-12 03:30N 46°27' W 004°39'1620.9
2019-Sep-12 02:45N 46°12' W 004°34'921.3
2019-Sep-12 02:19N 46°03' W 004°31'721.2
2019-Sep-12 02:00N 45°56' W 004°29'4221.2
2019-Sep-12 00:02N 45°15' W 004°17'121.1
2019-Sep-11 23:58N 45°14' W 004°17'9020.7
2019-Sep-11 19:39N 43°46' W 003°50'320.7
2019-Sep-11 19:30N 43°44' W 003°49'1020.4
2019-Sep-11 19:00N 43°34' W 003°46'712.0
2019-Sep-11 18:28N 43°27' W 003°48'0 0.3
2019-Sep-11 18:00N 43°28' W 003°48'0 0.0
2019-Sep-11 17:30N 43°28' W 003°48'0 0.0
2019-Sep-11 17:00N 43°28' W 003°48'0 0.0
2019-Sep-11 16:31N 43°28' W 003°48'0 0.0
2019-Sep-11 16:00N 43°28' W 003°48'0 0.0
2019-Sep-11 15:31N 43°28' W 003°48'4 6.1
2019-Sep-11 14:50N 43°31' W 003°45'619.6
2019-Sep-11 14:30N 43°37' W 003°47'1019.9
2019-Sep-11 14:01N 43°47' W 003°50'20120.7
2019-Sep-11 04:17N 47°04' W 004°51'621.6
2019-Sep-11 04:00N 47°10' W 004°53'3221.6
2019-Sep-11 02:31N 47°41' W 005°03'021.2
2019-Sep-11 02:30N 47°41' W 005°03'1021.0
2019-Sep-11 02:00N 47°52' W 005°06'1020.1
2019-Sep-11 01:31N 48°01' W 005°09'1019.6
2019-Sep-11 01:01N 48°11' W 005°08'1020.0
2019-Sep-11 00:30N 48°21' W 005°06'815.8
2019-Sep-11 00:01N 48°28' W 004°60'1019.8
2019-Sep-10 23:31N 48°37' W 004°55'1020.7
2019-Sep-10 23:01N 48°47' W 004°50'1120.9
2019-Sep-10 22:28N 48°58' W 004°46'1421.3
2019-Sep-10 21:48N 49°12' W 004°41'1821.6
2019-Sep-10 20:58N 49°29' W 004°33'4521.5
2019-Sep-10 18:54N 50°12' W 004°13'820.4
2019-Sep-10 18:30N 50°19' W 004°10'2 4.9
2019-Sep-10 18:00N 50°22' W 004°09'0 0.0
2019-Sep-10 17:30N 50°22' W 004°09'0 0.0
2019-Sep-10 17:00N 50°22' W 004°09'0 0.0
2019-Sep-10 16:30N 50°22' W 004°09'0 0.0
2019-Sep-10 16:00N 50°22' W 004°09'0 0.0
2019-Sep-10 15:30N 50°22' W 004°09'0 0.4
2019-Sep-10 15:00N 50°22' W 004°09'5 9.5
2019-Sep-10 14:30N 50°17' W 004°11'1120.4
2019-Sep-10 13:58N 50°07' W 004°15'7818.3
2019-Sep-10 09:41N 48°51' W 004°49'419.7
2019-Sep-10 09:30N 48°48' W 004°51'1019.6
2019-Sep-10 09:01N 48°39' W 004°55'1019.6
2019-Sep-10 08:30N 48°29' W 004°58'815.6
2019-Sep-10 08:01N 48°23' W 005°06'919.0
2019-Sep-10 07:31N 48°14' W 005°08'1019.2
2019-Sep-10 07:01N 48°04' W 005°10'918.4
2019-Sep-10 06:31N 47°55' W 005°07'918.9
2019-Sep-10 06:00N 47°46' W 005°05'1418.5
2019-Sep-10 05:14N 47°32' W 005°00'23419.3
2019-Sep-09 17:06N 43°44' W 003°49'421.4
2019-Sep-09 16:54N 43°40' W 003°48'921.2
2019-Sep-09 16:30N 43°31' W 003°45'4 7.4
2019-Sep-09 15:55N 43°28' W 003°48'0 0.0
2019-Sep-09 15:25N 43°28' W 003°48'0 0.0
2019-Sep-09 14:56N 43°28' W 003°48'0 0.0
2019-Sep-09 14:28N 43°28' W 003°48'0 0.0
2019-Sep-09 14:00N 43°28' W 003°48'0 0.0
2019-Sep-09 13:30N 43°28' W 003°48'4 3.8
2019-Sep-09 12:22N 43°31' W 003°45'821.2
2019-Sep-09 12:00N 43°39' W 003°48'25121.6
2019-Sep-09 00:20N 47°44' W 005°06'721.1
2019-Sep-09 00:00N 47°51' W 005°06'1020.9
2019-Sep-08 23:30N 48°01' W 005°09'1020.3
2019-Sep-08 23:00N 48°11' W 005°09'1020.6
2019-Sep-08 22:30N 48°21' W 005°07'816.5
2019-Sep-08 22:01N 48°28' W 004°59'1020.5
2019-Sep-08 21:30N 48°38' W 004°55'1121.4
2019-Sep-08 21:00N 48°48' W 004°51'9521.5
2019-Sep-08 16:36N 50°19' W 004°10'113.8
2019-Sep-08 16:30N 50°20' W 004°10'1 2.9
2019-Sep-08 16:00N 50°22' W 004°09'0 0.0
2019-Sep-08 15:30N 50°22' W 004°09'0 0.0
2019-Sep-08 15:00N 50°22' W 004°09'0 0.0
2019-Sep-08 14:30N 50°22' W 004°09'0 0.0
2019-Sep-08 14:00N 50°22' W 004°09'0 0.0
2019-Sep-08 13:30N 50°22' W 004°09'0 0.0
2019-Sep-08 13:00N 50°22' W 004°09'2 4.3
2019-Sep-08 12:30N 50°20' W 004°10'1121.2
2019-Sep-08 12:00N 50°09' W 004°09'1121.6
2019-Sep-08 11:30N 49°58' W 004°07'7221.5
2019-Sep-08 08:10N 48°47' W 003°57'4 1.1
2019-Sep-08 04:43N 48°43' W 003°58'2 8.8
2019-Sep-08 04:30N 48°45' W 003°57'918.9
2019-Sep-08 04:01N 48°52' W 004°06'1121.2
2019-Sep-08 03:30N 48°59' W 004°18'20619.3
2019-Sep-07 16:48N 51°32' W 007°55'621.5
2019-Sep-07 16:31N 51°37' W 008°02'1121.0
2019-Sep-07 16:01N 51°44' W 008°14'612.7
2019-Sep-07 15:31N 51°50' W 008°16'2 4.7
2019-Sep-07 15:00N 51°50' W 008°19'0 0.0
2019-Sep-07 14:30N 51°50' W 008°19'0 0.0
2019-Sep-07 14:00N 51°50' W 008°19'0 0.0
2019-Sep-07 13:30N 51°50' W 008°19'0 0.0
2019-Sep-07 13:00N 51°50' W 008°19'0 0.0
2019-Sep-07 12:30N 51°50' W 008°19'0 0.0
2019-Sep-07 12:00N 51°50' W 008°19'0 0.0
2019-Sep-07 11:30N 51°50' W 008°19'0 0.0
2019-Sep-07 11:00N 51°50' W 008°19'0 0.0
2019-Sep-07 10:30N 51°50' W 008°19'0 0.0
2019-Sep-07 10:00N 51°50' W 008°19'0 0.0
2019-Sep-07 09:30N 51°50' W 008°19'0 0.0
2019-Sep-07 09:00N 51°50' W 008°19'0 0.0
2019-Sep-07 08:30N 51°50' W 008°19'  

Dump ship's entire track history